Wetterdaten: Woche 22.06.15 - 28.06.15 (KW26)
Datum Zeit Temperatur Luftfeuchte Luftdruck Niederschlag Windrichtung Sonnenschein Solar Wind
22.06.2015 00:00 13,4 C 93 % 1015,2 hPa 0,0 l/m NW 0,00 h 0 W/m 3,1 km/h (1 Bft)
22.06.2015 01:00 12,7 C 95 % 1014,9 hPa 0,0 l/m NW 0,00 h 0 W/m 2,9 km/h (1 Bft)
22.06.2015 02:00 12,5 C 96 % 1014,8 hPa 0,0 l/m SW 0,00 h 0 W/m 7,0 km/h (2 Bft)
22.06.2015 03:00 12,0 C 96 % 1014,5 hPa 0,0 l/m SW 0,00 h 0 W/m 9,3 km/h (2 Bft)
22.06.2015 04:00 11,9 C 97 % 1014,3 hPa 0,0 l/m SW 0,00 h 0 W/m 11,3 km/h (2 Bft)
22.06.2015 05:00 11,8 C 98 % 1013,8 hPa 0,0 l/m SW 0,00 h 11 W/m 11,7 km/h (2 Bft)
22.06.2015 06:00 12,4 C 98 % 1013,6 hPa 0,0 l/m SW 0,08 h 56 W/m 15,0 km/h (3 Bft)
22.06.2015 07:00 13,5 C 97 % 1013,1 hPa 0,0 l/m SW 0,00 h 122 W/m 16,9 km/h (3 Bft)
22.06.2015 08:00 14,8 C 92 % 1012,8 hPa 0,0 l/m SW 0,83 h 305 W/m 18,2 km/h (3 Bft)
22.06.2015 09:00 17,0 C 83 % 1012,3 hPa 0,0 l/m SW 0,75 h 370 W/m 20,2 km/h (4 Bft)
22.06.2015 10:00 17,7 C 78 % 1011,9 hPa 0,0 l/m W-SW 0,08 h 331 W/m 28,2 km/h (4 Bft)
22.06.2015 11:00 18,3 C 74 % 1011,7 hPa 0,0 l/m W-SW 0,33 h 383 W/m 29,3 km/h (5 Bft)
22.06.2015 12:00 18,9 C 71 % 1011,0 hPa 0,2 l/m W 0,33 h 327 W/m 27,9 km/h (4 Bft)
22.06.2015 13:00 17,9 C 72 % 1010,7 hPa 0,0 l/m W-NW 0,00 h 195 W/m 18,8 km/h (3 Bft)
22.06.2015 14:00 17,6 C 68 % 1010,7 hPa 0,0 l/m NW 0,00 h 150 W/m 10,7 km/h (2 Bft)
22.06.2015 15:00 17,9 C 66 % 1010,3 hPa 0,0 l/m W 0,00 h 154 W/m 9,5 km/h (2 Bft)
22.06.2015 16:00 18,0 C 63 % 1010,0 hPa 0,0 l/m W 0,00 h 123 W/m 6,0 km/h (2 Bft)
22.06.2015 17:00 17,7 C 69 % 1009,1 hPa 0,0 l/m N 0,00 h 68 W/m 2,4 km/h (1 Bft)
22.06.2015 18:00 17,4 C 77 % 1007,7 hPa 0,0 l/m SW 0,00 h 96 W/m 6,8 km/h (2 Bft)
22.06.2015 19:00 17,0 C 78 % 1007,0 hPa 0,0 l/m SW 0,00 h 57 W/m 14,8 km/h (3 Bft)
22.06.2015 20:00 16,2 C 83 % 1005,6 hPa 0,0 l/m SW 0,00 h 23 W/m 6,3 km/h (2 Bft)
22.06.2015 21:00 15,2 C 86 % 1004,3 hPa 0,0 l/m SW 0,08 h 9 W/m 7,4 km/h (2 Bft)
22.06.2015 22:00 14,9 C 88 % 1004,4 hPa 4,8 l/m W 0,00 h 0 W/m 10,6 km/h (2 Bft)
22.06.2015 23:00 13,7 C 95 % 1005,4 hPa 4,4 l/m W 0,00 h 0 W/m 13,4 km/h (3 Bft)
23.06.2015 00:00 12,5 C 95 % 1006,7 hPa 2,0 l/m NW 0,00 h 0 W/m 15,8 km/h (3 Bft)
23.06.2015 01:00 10,8 C 94 % 1007,3 hPa 0,6 l/m SW 0,00 h 0 W/m 12,9 km/h (3 Bft)
23.06.2015 02:00 10,5 C 96 % 1008,0 hPa 0,2 l/m SW 0,00 h 0 W/m 10,3 km/h (2 Bft)
23.06.2015 03:00 10,4 C 97 % 1008,3 hPa 0,4 l/m SW 0,00 h 0 W/m 4,5 km/h (1 Bft)
23.06.2015 04:00 10,6 C 98 % 1008,4 hPa 0,0 l/m W-SW 0,00 h 0 W/m 11,9 km/h (2 Bft)
23.06.2015 05:00 10,6 C 97 % 1008,8 hPa 0,0 l/m W-SW 0,00 h 8 W/m 13,0 km/h (3 Bft)
23.06.2015 06:00 10,6 C 97 % 1009,1 hPa 0,0 l/m W-SW 0,00 h 42 W/m 12,1 km/h (2 Bft)
23.06.2015 07:00 11,0 C 91 % 1009,6 hPa 0,0 l/m W-NW 0,75 h 183 W/m 16,8 km/h (3 Bft)
23.06.2015 08:00 11,6 C 85 % 1010,3 hPa 0,0 l/m W-NW 0,83 h 407 W/m 12,8 km/h (3 Bft)
23.06.2015 09:00 12,2 C 79 % 1010,6 hPa 0,2 l/m NW 0,50 h 414 W/m 16,6 km/h (3 Bft)
23.06.2015 10:00 12,8 C 72 % 1010,9 hPa 0,0 l/m NW 0,50 h 465 W/m 16,8 km/h (3 Bft)
23.06.2015 11:00 13,7 C 67 % 1011,2 hPa 0,0 l/m W-NW 0,33 h 427 W/m 17,6 km/h (3 Bft)
23.06.2015 12:00 14,0 C 63 % 1011,5 hPa 0,0 l/m W 0,08 h 330 W/m 18,1 km/h (3 Bft)
23.06.2015 13:00 14,1 C 63 % 1011,8 hPa 0,0 l/m W-NW 0,00 h 308 W/m 19,4 km/h (3 Bft)
23.06.2015 14:00 15,3 C 60 % 1012,0 hPa 0,0 l/m W 0,17 h 474 W/m 23,1 km/h (4 Bft)
23.06.2015 15:00 15,5 C 58 % 1012,4 hPa 0,0 l/m W-NW 0,08 h 229 W/m 22,8 km/h (4 Bft)
23.06.2015 16:00 15,0 C 61 % 1013,2 hPa 0,0 l/m W 0,25 h 372 W/m 21,9 km/h (4 Bft)
23.06.2015 17:00 15,2 C 61 % 1013,7 hPa 0,0 l/m W-NW 0,17 h 301 W/m 18,6 km/h (3 Bft)
23.06.2015 18:00 15,8 C 55 % 1014,0 hPa 0,0 l/m W-NW 0,75 h 369 W/m 19,6 km/h (3 Bft)
23.06.2015 19:00 14,8 C 61 % 1014,3 hPa 0,0 l/m W-NW 0,83 h 253 W/m 18,6 km/h (3 Bft)
23.06.2015 20:00 13,1 C 70 % 1014,8 hPa 0,0 l/m NW 0,08 h 47 W/m 15,8 km/h (3 Bft)
23.06.2015 21:00 11,8 C 75 % 1015,9 hPa 0,0 l/m NW 0,00 h 7 W/m 10,3 km/h (2 Bft)
23.06.2015 22:00 10,7 C 80 % 1016,7 hPa 0,0 l/m W-NW 0,00 h 0 W/m 5,1 km/h (1 Bft)
23.06.2015 23:00 10,1 C 83 % 1017,5 hPa 0,0 l/m N 0,00 h 0 W/m 0,5 km/h (0 Bft)
24.06.2015 00:00 9,2 C 89 % 1017,8 hPa 0,0 l/m N 0,00 h 0 W/m 0,0 km/h (0 Bft)
24.06.2015 01:00 9,2 C 91 % 1018,1 hPa 0,0 l/m N 0,00 h 0 W/m 0,0 km/h (0 Bft)
24.06.2015 02:00 8,6 C 93 % 1018,1 hPa 0,0 l/m N 0,00 h 0 W/m 0,1 km/h (0 Bft)
24.06.2015 03:00 7,8 C 95 % 1018,3 hPa 0,0 l/m N 0,00 h 0 W/m 0,1 km/h (0 Bft)
24.06.2015 04:00 8,0 C 96 % 1018,7 hPa 0,0 l/m N 0,00 h 0 W/m 0,5 km/h (0 Bft)
24.06.2015 05:00 8,6 C 96 % 1019,2 hPa 0,0 l/m N 0,00 h 7 W/m 0,1 km/h (0 Bft)
24.06.2015 06:00 9,0 C 95 % 1019,9 hPa 0,0 l/m N 0,00 h 26 W/m 0,1 km/h (0 Bft)
24.06.2015 07:00 10,3 C 92 % 1020,1 hPa 0,0 l/m W-NW 0,42 h 146 W/m 1,2 km/h (1 Bft)
24.06.2015 08:00 12,5 C 83 % 1020,3 hPa 0,0 l/m N-NW 1,00 h 378 W/m 7,1 km/h (2 Bft)
24.06.2015 09:00 14,0 C 76 % 1020,5 hPa 0,0 l/m N 1,00 h 589 W/m 5,1 km/h (1 Bft)
24.06.2015 10:00 15,3 C 69 % 1020,6 hPa 0,0 l/m N-NW 0,83 h 649 W/m 5,6 km/h (1 Bft)
24.06.2015 11:00 16,1 C 61 % 1020,7 hPa 0,0 l/m W 0,50 h 541 W/m 7,6 km/h (2 Bft)
24.06.2015 12:00 16,4 C 60 % 1020,7 hPa 0,0 l/m S-SW 0,17 h 281 W/m 5,0 km/h (1 Bft)
24.06.2015 13:00 18,1 C 51 % 1020,4 hPa 0,0 l/m O-SO 0,42 h 549 W/m 9,0 km/h (2 Bft)
24.06.2015 14:00 18,1 C 54 % 1020,0 hPa 0,0 l/m NO 0,25 h 464 W/m 8,0 km/h (2 Bft)
24.06.2015 15:00 18,3 C 52 % 1019,9 hPa 0,0 l/m O-NO 0,33 h 441 W/m 5,8 km/h (1 Bft)
24.06.2015 16:00 20,3 C 48 % 1019,8 hPa 0,0 l/m SW 0,75 h 588 W/m 7,5 km/h (2 Bft)
24.06.2015 17:00 20,7 C 43 % 1019,4 hPa 0,0 l/m O 1,00 h 615 W/m 9,4 km/h (2 Bft)
24.06.2015 18:00 20,5 C 45 % 1019,3 hPa 0,0 l/m NO 1,00 h 434 W/m 9,4 km/h (2 Bft)
24.06.2015 19:00 19,6 C 48 % 1019,5 hPa 0,0 l/m O-NO 1,00 h 256 W/m 10,3 km/h (2 Bft)
24.06.2015 20:00 18,0 C 55 % 1019,7 hPa 0,0 l/m O-NO 0,17 h 36 W/m 8,7 km/h (2 Bft)
24.06.2015 21:00 15,0 C 70 % 1019,9 hPa 0,0 l/m N 0,00 h 7 W/m 0,0 km/h (0 Bft)
24.06.2015 22:00 13,0 C 78 % 1020,4 hPa 0,0 l/m N 0,00 h 0 W/m 0,1 km/h (0 Bft)
24.06.2015 23:00 11,8 C 84 % 1020,5 hPa 0,0 l/m N 0,00 h 0 W/m 0,3 km/h (0 Bft)
25.06.2015 00:00 11,2 C 86 % 1020,7 hPa 0,0 l/m N 0,00 h 0 W/m 0,3 km/h (0 Bft)
25.06.2015 01:00 10,7 C 87 % 1020,9 hPa 0,0 l/m N 0,00 h 0 W/m 1,6 km/h (1 Bft)
25.06.2015 02:00 10,4 C 89 % 1021,0 hPa 0,0 l/m O-NO 0,00 h 0 W/m 2,1 km/h (1 Bft)
25.06.2015 03:00 10,2 C 90 % 1020,9 hPa 0,0 l/m NO 0,00 h 0 W/m 1,9 km/h (1 Bft)
25.06.2015 04:00 9,5 C 93 % 1020,8 hPa 0,0 l/m N 0,00 h 0 W/m 0,5 km/h (0 Bft)
25.06.2015 05:00 8,6 C 95 % 1020,9 hPa 0,0 l/m N 0,00 h 10 W/m 0,0 km/h (0 Bft)
25.06.2015 06:00 9,2 C 95 % 1020,9 hPa 0,0 l/m N 0,08 h 63 W/m 0,0 km/h (0 Bft)
25.06.2015 07:00 11,8 C 88 % 1020,8 hPa 0,0 l/m N 1,00 h 196 W/m 0,3 km/h (0 Bft)
25.06.2015 08:00 14,5 C 79 % 1020,9 hPa 0,0 l/m N 0,92 h 368 W/m 1,5 km/h (1 Bft)
25.06.2015 09:00 16,6 C 75 % 1020,9 hPa 0,0 l/m N 0,75 h 365 W/m 2,1 km/h (1 Bft)
25.06.2015 10:00 18,0 C 69 % 1020,9 hPa 0,0 l/m NO 0,75 h 432 W/m 3,5 km/h (1 Bft)
25.06.2015 11:00 19,1 C 58 % 1020,8 hPa 0,0 l/m S-SO 0,33 h 452 W/m 5,1 km/h (1 Bft)
25.06.2015 12:00 20,2 C 50 % 1020,9 hPa 0,0 l/m O 0,50 h 559 W/m 4,9 km/h (1 Bft)
25.06.2015 13:00 21,6 C 47 % 1020,7 hPa 0,0 l/m NO 1,00 h 897 W/m 8,9 km/h (2 Bft)
25.06.2015 14:00 21,7 C 45 % 1020,6 hPa 0,0 l/m W 0,67 h 686 W/m 8,0 km/h (2 Bft)
25.06.2015 15:00 22,9 C 43 % 1020,2 hPa 0,0 l/m S-SO 0,83 h 776 W/m 7,8 km/h (2 Bft)
25.06.2015 16:00 23,2 C 44 % 1019,9 hPa 0,0 l/m SW 0,67 h 559 W/m 7,6 km/h (2 Bft)
25.06.2015 17:00 22,1 C 46 % 1019,6 hPa 0,0 l/m SW 0,33 h 310 W/m 3,5 km/h (1 Bft)
25.06.2015 18:00 22,4 C 45 % 1019,6 hPa 0,0 l/m N 0,67 h 310 W/m 3,3 km/h (1 Bft)
25.06.2015 19:00 21,6 C 50 % 1019,5 hPa 0,0 l/m SW 0,33 h 113 W/m 2,3 km/h (1 Bft)
25.06.2015 20:00 18,5 C 63 % 1019,6 hPa 0,0 l/m N 0,00 h 14 W/m 0,1 km/h (0 Bft)
25.06.2015 21:00 17,2 C 70 % 1019,9 hPa 0,0 l/m N 0,00 h 8 W/m 0,7 km/h (0 Bft)
25.06.2015 22:00 16,7 C 72 % 1020,4 hPa 0,0 l/m N 0,00 h 0 W/m 0,1 km/h (0 Bft)
25.06.2015 23:00 15,4 C 79 % 1020,5 hPa 0,0 l/m SW 0,00 h 0 W/m 1,2 km/h (1 Bft)
26.06.2015 00:00 15,3 C 80 % 1020,6 hPa 0,0 l/m W-SW 0,00 h 0 W/m 6,1 km/h (2 Bft)
26.06.2015 01:00 14,6 C 81 % 1020,2 hPa 0,0 l/m W 0,00 h 0 W/m 6,4 km/h (2 Bft)
26.06.2015 02:00 13,9 C 83 % 1020,2 hPa 0,0 l/m N 0,00 h 0 W/m 0,9 km/h (0 Bft)
26.06.2015 03:00 13,1 C 86 % 1019,9 hPa 0,0 l/m W-NW 0,00 h 0 W/m 0,9 km/h (0 Bft)
26.06.2015 04:00 12,1 C 89 % 1019,9 hPa 0,0 l/m N 0,00 h 0 W/m 0,4 km/h (0 Bft)
26.06.2015 05:00 11,1 C 93 % 1019,8 hPa 0,0 l/m N 0,00 h 10 W/m 0,0 km/h (0 Bft)
26.06.2015 06:00 11,4 C 93 % 1019,9 hPa 0,0 l/m N 0,00 h 66 W/m 0,0 km/h (0 Bft)
26.06.2015 07:00 13,4 C 88 % 1020,1 hPa 0,0 l/m N 0,75 h 194 W/m 0,4 km/h (0 Bft)
26.06.2015 08:00 16,1 C 80 % 1020,2 hPa 0,0 l/m N-NW 1,00 h 365 W/m 1,2 km/h (1 Bft)
26.06.2015 09:00 18,0 C 75 % 1020,1 hPa 0,0 l/m NW 1,00 h 527 W/m 5,1 km/h (1 Bft)
26.06.2015 10:00 20,2 C 64 % 1019,7 hPa 0,0 l/m O-SO 1,00 h 679 W/m 6,6 km/h (2 Bft)
26.06.2015 11:00 21,8 C 57 % 1019,3 hPa 0,0 l/m N-NO 0,83 h 677 W/m 7,5 km/h (2 Bft)
26.06.2015 12:00 22,4 C 55 % 1018,9 hPa 0,0 l/m N 0,75 h 713 W/m 6,8 km/h (2 Bft)
26.06.2015 13:00 23,0 C 51 % 1018,7 hPa 0,0 l/m N 0,83 h 725 W/m 8,2 km/h (2 Bft)
26.06.2015 14:00 23,7 C 49 % 1018,1 hPa 0,0 l/m NW 0,58 h 597 W/m 7,5 km/h (2 Bft)
26.06.2015 15:00 25,1 C 43 % 1017,9 hPa 0,0 l/m N-NW 1,00 h 861 W/m 9,8 km/h (2 Bft)
26.06.2015 16:00 25,5 C 40 % 1017,5 hPa 0,0 l/m N 1,00 h 688 W/m 8,7 km/h (2 Bft)
26.06.2015 17:00 25,7 C 42 % 1017,2 hPa 0,0 l/m NW 0,83 h 561 W/m 8,1 km/h (2 Bft)
26.06.2015 18:00 25,4 C 43 % 1016,9 hPa 0,0 l/m NW 0,92 h 418 W/m 7,2 km/h (2 Bft)
26.06.2015 19:00 24,2 C 47 % 1016,9 hPa 0,0 l/m N-NO 0,33 h 154 W/m 4,9 km/h (1 Bft)
26.06.2015 20:00 22,5 C 59 % 1016,9 hPa 0,0 l/m N-NO 0,00 h 25 W/m 1,3 km/h (1 Bft)
26.06.2015 21:00 20,2 C 68 % 1016,9 hPa 0,0 l/m N-NO 0,00 h 6 W/m 1,2 km/h (1 Bft)
26.06.2015 22:00 19,3 C 69 % 1017,0 hPa 0,0 l/m N 0,00 h 0 W/m 0,4 km/h (0 Bft)
26.06.2015 23:00 18,2 C 74 % 1016,8 hPa 0,0 l/m N 0,00 h 0 W/m 0,0 km/h (0 Bft)
27.06.2015 00:00 16,7 C 79 % 1016,7 hPa 0,0 l/m N 0,00 h 0 W/m 0,7 km/h (0 Bft)
27.06.2015 01:00 15,5 C 84 % 1016,3 hPa 0,0 l/m N 0,00 h 0 W/m 0,0 km/h (0 Bft)
27.06.2015 02:00 14,6 C 87 % 1016,0 hPa 0,0 l/m N 0,00 h 0 W/m 0,0 km/h (0 Bft)
27.06.2015 03:00 14,1 C 89 % 1015,6 hPa 0,0 l/m N 0,00 h 0 W/m 0,0 km/h (0 Bft)
27.06.2015 04:00 14,0 C 92 % 1015,2 hPa 0,0 l/m N 0,00 h 0 W/m 0,0 km/h (0 Bft)
27.06.2015 05:00 14,0 C 93 % 1015,2 hPa 0,0 l/m N 0,00 h 7 W/m 0,0 km/h (0 Bft)
27.06.2015 06:00 14,4 C 92 % 1015,1 hPa 0,0 l/m N 0,00 h 36 W/m 0,0 km/h (0 Bft)
27.06.2015 07:00 15,3 C 89 % 1015,0 hPa 0,0 l/m N 0,00 h 66 W/m 0,4 km/h (0 Bft)
27.06.2015 08:00 16,3 C 85 % 1014,9 hPa 0,0 l/m N-NO 0,00 h 113 W/m 1,7 km/h (1 Bft)
27.06.2015 09:00 18,4 C 77 % 1014,8 hPa 0,0 l/m NO 0,17 h 271 W/m 6,6 km/h (2 Bft)
27.06.2015 10:00 19,6 C 74 % 1014,7 hPa 0,0 l/m S 0,08 h 181 W/m 7,0 km/h (2 Bft)
27.06.2015 11:00 19,9 C 74 % 1014,6 hPa 0,0 l/m SW 0,00 h 186 W/m 8,0 km/h (2 Bft)
27.06.2015 12:00 18,1 C 84 % 1015,8 hPa 4,0 l/m N-NO 0,00 h 95 W/m 14,0 km/h (3 Bft)
27.06.2015 13:00 16,7 C 93 % 1015,5 hPa 1,4 l/m O-NO 0,00 h 94 W/m 9,1 km/h (2 Bft)
27.06.2015 14:00 18,6 C 92 % 1015,0 hPa 0,0 l/m S-SW 0,58 h 665 W/m 10,9 km/h (2 Bft)
27.06.2015 15:00 21,2 C 79 % 1014,3 hPa 0,0 l/m S-SW 1,00 h 828 W/m 18,9 km/h (3 Bft)
27.06.2015 16:00 20,7 C 77 % 1013,9 hPa 2,4 l/m SW 0,17 h 129 W/m 15,6 km/h (3 Bft)
27.06.2015 17:00 17,1 C 94 % 1014,4 hPa 14,6 l/m SW 0,00 h 76 W/m 12,4 km/h (3 Bft)
27.06.2015 18:00 17,9 C 95 % 1014,7 hPa 0,2 l/m SW 0,25 h 161 W/m 8,7 km/h (2 Bft)
27.06.2015 19:00 18,8 C 91 % 1015,4 hPa 0,0 l/m W-NW 0,25 h 129 W/m 2,0 km/h (1 Bft)
27.06.2015 20:00 17,7 C 94 % 1016,4 hPa 0,0 l/m W-NW 0,00 h 26 W/m 2,0 km/h (1 Bft)
27.06.2015 21:00 16,6 C 92 % 1017,2 hPa 0,0 l/m NW 0,00 h 8 W/m 3,2 km/h (1 Bft)
27.06.2015 22:00 14,7 C 96 % 1018,1 hPa 0,0 l/m NW 0,00 h 0 W/m 1,5 km/h (1 Bft)
27.06.2015 23:00 13,6 C 97 % 1018,5 hPa 0,0 l/m N 0,00 h 0 W/m 0,0 km/h (0 Bft)
28.06.2015 00:00 12,8 C 98 % 1018,9 hPa 0,0 l/m N 0,00 h 0 W/m 0,8 km/h (0 Bft)
28.06.2015 01:00 12,1 C 98 % 1019,0 hPa 0,0 l/m N 0,00 h 0 W/m 1,5 km/h (1 Bft)
28.06.2015 02:00 11,4 C 98 % 1019,0 hPa 0,0 l/m N 0,00 h 0 W/m 0,0 km/h (0 Bft)
28.06.2015 03:00 10,9 C 99 % 1019,4 hPa 0,0 l/m N 0,00 h 0 W/m 0,1 km/h (0 Bft)
28.06.2015 04:00 10,4 C 99 % 1019,3 hPa 0,0 l/m N 0,00 h 0 W/m 0,0 km/h (0 Bft)
28.06.2015 05:00 9,9 C 99 % 1019,4 hPa 0,0 l/m N 0,00 h 9 W/m 0,0 km/h (0 Bft)
28.06.2015 06:00 10,5 C 99 % 1019,6 hPa 0,0 l/m NW 0,00 h 65 W/m 1,1 km/h (0 Bft)
28.06.2015 07:00 12,8 C 97 % 1019,6 hPa 0,0 l/m NW 0,92 h 195 W/m 1,6 km/h (1 Bft)
28.06.2015 08:00 15,6 C 87 % 1019,8 hPa 0,0 l/m NW 1,00 h 363 W/m 5,6 km/h (1 Bft)
28.06.2015 09:00 17,6 C 78 % 1019,9 hPa 0,0 l/m N-NO 1,00 h 525 W/m 7,5 km/h (2 Bft)
28.06.2015 10:00 18,9 C 75 % 1019,8 hPa 0,0 l/m O-NO 0,92 h 652 W/m 5,1 km/h (1 Bft)
28.06.2015 11:00 19,8 C 66 % 1019,4 hPa 0,0 l/m NO 0,58 h 548 W/m 5,9 km/h (2 Bft)
28.06.2015 12:00 20,7 C 59 % 1019,4 hPa 0,0 l/m NO 0,92 h 853 W/m 8,3 km/h (2 Bft)
28.06.2015 13:00 21,9 C 52 % 1019,2 hPa 0,0 l/m N-NO 0,92 h 895 W/m 6,3 km/h (2 Bft)
28.06.2015 14:00 22,4 C 49 % 1018,8 hPa 0,0 l/m SW 0,67 h 779 W/m 6,7 km/h (2 Bft)
28.06.2015 15:00 23,1 C 49 % 1018,3 hPa 0,0 l/m S 0,92 h 859 W/m 7,0 km/h (2 Bft)
28.06.2015 16:00 23,5 C 47 % 1017,9 hPa 0,0 l/m S 0,42 h 457 W/m 7,6 km/h (2 Bft)
28.06.2015 17:00 23,3 C 47 % 1017,7 hPa 0,0 l/m O-NO 0,75 h 467 W/m 4,7 km/h (1 Bft)
28.06.2015 18:00 23,6 C 47 % 1017,6 hPa 0,0 l/m O 0,92 h 345 W/m 9,1 km/h (2 Bft)
28.06.2015 19:00 22,2 C 52 % 1017,9 hPa 0,0 l/m O 0,00 h 71 W/m 6,8 km/h (2 Bft)
28.06.2015 20:00 20,1 C 66 % 1018,0 hPa 0,0 l/m N 0,00 h 22 W/m 0,9 km/h (0 Bft)
28.06.2015 21:00 18,2 C 75 % 1018,5 hPa 0,0 l/m O 0,00 h 7 W/m 2,3 km/h (1 Bft)
28.06.2015 22:00 17,8 C 74 % 1019,1 hPa 0,0 l/m O 0,00 h 0 W/m 2,9 km/h (1 Bft)
28.06.2015 23:00 15,8 C 83 % 1019,1 hPa 0,0 l/m N 0,00 h 0 W/m 0,0 km/h (0 Bft)
Min-Datum _ 24.06.15 26.06.15 22.06.15 - - - - 22.06.15
_ Min-Zeit 03:50 16:05 22:25 - - - - 00:20
Minimum _ 7,7 C 37 % 1003,4 hPa - - - - 0,0 km/h (0 Bft)
Max-Datum _ 26.06.15 28.06.15 25.06.15 27.06.15 - 22.06.15 23.06.15 22.06.15
_ Max-Zeit 17:20 06:50 02:25 17:00 - 06:55 14:45 12:15
Maximum _ 25,8 C 100 % 1021,1 hPa 14,6 l/m - 0,08 h 1190 W/m 37,0 km/h
W (5 Bft)
Durchschnitt _ 16,0 C 76 % 1016,5 hPa #35,4 l/m SW #48:45 h 311 W/m 6,8 km/h (2 Bft)